createdAt,value
2023-04-02T00:00:36.356Z,99417.83
2023-04-02T00:06:02.011Z,99428.55
2023-04-02T00:11:06.326Z,99432.42
2023-04-02T00:16:13.807Z,99439.02
2023-04-02T00:21:22.036Z,99445.70
2023-04-02T00:26:43.684Z,99451.36
2023-04-02T00:31:59.664Z,99463.17
2023-04-02T00:37:03.971Z,99468.28
2023-04-02T00:42:07.802Z,99475.00
2023-04-02T00:47:25.596Z,99477.23
2023-04-02T00:52:31.440Z,99489.64
2023-04-02T00:57:35.343Z,99497.77
2023-04-02T01:02:41.279Z,99504.61
2023-04-02T01:08:08.282Z,99508.47
2023-04-02T01:13:17.962Z,99511.14
2023-04-02T01:18:57.298Z,99509.19
2023-04-02T01:24:06.761Z,99517.52
2023-04-02T01:29:19.573Z,99528.56
2023-04-02T01:34:26.669Z,99538.02
2023-04-02T01:40:08.788Z,99542.34
2023-04-02T01:45:17.157Z,99549.83
2023-04-02T01:50:34.188Z,99555.52
2023-04-02T01:55:47.608Z,99565.13
2023-04-02T02:00:57.222Z,99571.46
2023-04-02T02:06:03.542Z,99578.39
2023-04-02T02:11:09.294Z,99580.38
2023-04-02T02:16:18.355Z,99585.09
2023-04-02T02:22:11.579Z,99592.55
2023-04-02T02:27:24.091Z,99611.68
2023-04-02T02:32:33.604Z,99611.73
2023-04-02T02:37:41.238Z,99623.71
2023-04-02T02:42:52.090Z,99627.77
2023-04-02T02:47:56.685Z,99635.54
2023-04-02T02:53:04.738Z,99649.48
2023-04-02T02:58:31.795Z,99646.66
2023-04-02T03:03:53.941Z,99656.40
2023-04-02T03:09:17.900Z,99673.86
2023-04-02T03:14:44.894Z,99684.31
2023-04-02T03:20:33.598Z,99692.66
2023-04-02T03:25:44.691Z,99705.66
2023-04-02T03:30:51.429Z,99714.18
2023-04-02T03:36:03.358Z,99721.78
2023-04-02T03:41:13.831Z,99730.77
2023-04-02T03:46:24.918Z,99744.02
2023-04-02T03:51:49.844Z,99755.14
2023-04-02T03:56:54.832Z,99765.98
2023-04-02T04:02:39.962Z,99772.94
2023-04-02T04:07:44.314Z,99783.04
2023-04-02T04:12:49.411Z,99797.33
2023-04-02T04:18:14.210Z,99799.35
2023-04-02T04:23:37.269Z,99803.08
2023-04-02T04:28:49.914Z,99812.19
2023-04-02T04:34:03.545Z,99818.58
2023-04-02T04:39:31.570Z,99828.30
2023-04-02T04:44:52.382Z,99839.14
2023-04-02T04:50:06.100Z,99851.68
2023-04-02T04:55:37.962Z,99856.42
2023-04-02T05:00:45.153Z,99874.16
2023-04-02T05:05:49.622Z,99882.77
2023-04-02T05:10:57.955Z,99891.98
2023-04-02T05:16:41.131Z,99910.55
2023-04-02T05:22:31.043Z,99918.96
2023-04-02T05:27:38.291Z,99925.93
2023-04-02T05:32:48.288Z,99926.52
2023-04-02T05:37:52.624Z,99936.39
2023-04-02T05:42:58.174Z,99943.77
2023-04-02T05:48:06.299Z,99951.86
2023-04-02T05:53:47.307Z,99956.39
2023-04-02T05:58:56.815Z,99958.59
2023-04-02T06:04:26.563Z,99969.19
2023-04-02T06:09:56.205Z,99981.60
2023-04-02T06:15:00.736Z,99995.42
2023-04-02T06:20:07.484Z,99992.98
2023-04-02T06:25:33.777Z,100017.55
2023-04-02T06:30:40.057Z,100019.95
2023-04-02T06:35:47.413Z,100031.84
2023-04-02T06:41:13.634Z,100029.84
2023-04-02T06:46:33.096Z,100038.67
2023-04-02T06:51:44.880Z,100056.00
2023-04-02T06:56:53.980Z,100061.36
2023-04-02T07:02:13.061Z,100061.45
2023-04-02T07:07:18.342Z,100067.96
2023-04-02T07:12:25.729Z,100084.42
2023-04-02T07:17:30.777Z,100085.24
2023-04-02T07:22:34.960Z,100098.93
2023-04-02T07:27:39.959Z,100104.30
2023-04-02T07:32:43.773Z,100110.23
2023-04-02T07:37:47.546Z,100118.09
2023-04-02T07:42:51.317Z,100121.77
2023-04-02T07:47:55.243Z,100127.52
2023-04-02T07:52:59.080Z,100139.90
2023-04-02T07:58:03.460Z,100134.54
2023-04-02T08:03:07.518Z,100142.75
2023-04-02T08:08:11.522Z,100156.14
2023-04-02T08:13:16.649Z,100167.48
2023-04-02T08:18:24.082Z,100178.52
2023-04-02T08:23:28.404Z,100191.27
2023-04-02T08:28:32.293Z,100199.17
2023-04-02T08:33:36.225Z,100201.84
2023-04-02T08:38:40.675Z,100206.46
2023-04-02T08:44:07.481Z,100212.86
2023-04-02T08:49:29.930Z,100219.73
2023-04-02T08:54:47.273Z,100217.67
2023-04-02T09:00:01.719Z,100219.14
2023-04-02T09:05:08.321Z,100224.58
2023-04-02T09:10:19.915Z,100236.21
2023-04-02T09:15:31.456Z,100240.77
2023-04-02T09:20:35.091Z,100254.02
2023-04-02T09:25:51.206Z,100258.52
2023-04-02T09:31:16.470Z,100278.69
2023-04-02T09:36:38.688Z,100274.14
2023-04-02T09:41:43.782Z,100288.55
2023-04-02T09:47:00.734Z,100296.33
2023-04-02T09:52:30.368Z,100307.91
2023-04-02T09:57:34.262Z,100316.67
2023-04-02T10:02:38.442Z,100321.87
2023-04-02T10:07:48.978Z,100327.95
2023-04-02T10:12:59.453Z,100322.79
2023-04-02T10:18:13.007Z,100340.57
2023-04-02T10:23:18.118Z,100348.80
2023-04-02T10:28:43.636Z,100354.98
2023-04-02T10:33:51.607Z,100367.57
2023-04-02T10:39:12.439Z,100369.07
2023-04-02T10:44:30.415Z,100368.40
2023-04-02T10:49:50.450Z,100370.20
2023-04-02T10:55:04.876Z,100369.52
2023-04-02T11:35:06.673Z,100424.16
2023-04-02T11:40:17.280Z,100422.19
2023-04-02T11:46:08.744Z,100428.59
2023-04-02T11:58:06.150Z,100450.41
2023-04-02T12:10:23.040Z,100475.00
2023-04-02T12:16:01.638Z,100479.73
2023-04-02T12:21:18.772Z,100490.52
2023-04-02T12:26:49.980Z,100491.94
2023-04-02T12:32:04.495Z,100491.33
2023-04-02T12:37:32.394Z,100496.39
2023-04-02T12:42:46.865Z,100493.98
2023-04-02T12:48:01.521Z,100497.77
2023-04-02T12:53:29.745Z,100504.35
2023-04-02T12:58:46.578Z,100504.98
2023-04-02T13:04:10.947Z,100513.30
2023-04-02T13:09:40.327Z,100516.79
2023-04-02T13:14:46.861Z,100523.45
2023-04-02T13:19:57.576Z,100527.28
2023-04-02T13:25:03.219Z,100525.13
2023-04-02T13:30:20.636Z,100531.83
2023-04-02T13:35:29.677Z,100529.80
2023-04-02T13:40:35.164Z,100539.63
2023-04-02T13:45:45.828Z,100541.39
2023-04-02T13:51:07.130Z,100543.81
2023-04-02T13:56:31.305Z,100554.68
2023-04-02T14:01:40.005Z,100561.77
2023-04-02T14:07:13.078Z,100563.52
2023-04-02T14:12:37.781Z,100567.63
2023-04-02T14:18:07.757Z,100574.85
2023-04-02T14:23:48.027Z,100578.06
2023-04-02T14:29:13.668Z,100586.11
2023-04-02T14:34:41.312Z,100588.18
2023-04-02T14:40:04.671Z,100599.13
2023-04-02T14:45:31.261Z,100605.80
2023-04-02T14:50:40.858Z,100598.66
2023-04-02T14:55:48.242Z,100612.74
2023-04-02T15:01:39.547Z,100614.89
2023-04-02T15:06:50.698Z,100620.98
2023-04-02T15:11:58.872Z,100625.76
2023-04-02T15:17:04.606Z,100634.38
2023-04-02T15:22:24.509Z,100630.98
2023-04-02T15:27:45.783Z,100639.05
2023-04-02T15:32:57.188Z,100648.88
2023-04-02T15:38:21.215Z,100650.06
2023-04-02T15:43:32.721Z,100659.98
2023-04-02T15:48:45.780Z,100663.35
2023-04-02T15:54:00.831Z,100663.18
2023-04-02T15:59:38.393Z,100675.42
2023-04-02T16:05:05.318Z,100681.79
2023-04-02T16:10:41.284Z,100685.61
2023-04-02T16:15:57.664Z,100703.44
2023-04-02T16:21:10.195Z,100703.18
2023-04-02T16:26:22.957Z,100706.17
2023-04-02T16:31:58.204Z,100718.52
2023-04-02T16:37:23.279Z,100732.62
2023-04-02T16:42:48.506Z,100743.96
2023-04-02T16:48:15.191Z,100753.27
2023-04-02T16:53:54.509Z,100758.25
2023-04-02T16:59:21.562Z,100761.27
2023-04-02T17:04:50.345Z,100772.20
2023-04-02T17:10:37.971Z,100783.39
2023-04-02T17:16:11.991Z,100787.89
2023-04-02T17:21:33.496Z,100794.88
2023-04-02T17:26:58.054Z,100799.25
2023-04-02T17:32:38.061Z,100804.90
2023-04-02T17:38:13.900Z,100809.75
2023-04-02T17:43:36.733Z,100815.49
2023-04-02T17:48:50.084Z,100818.96
2023-04-02T17:54:04.042Z,100826.09
2023-04-02T17:59:35.243Z,100838.30
2023-04-02T18:05:27.992Z,100845.21
2023-04-02T18:11:17.452Z,100853.58
2023-04-02T18:17:15.938Z,100864.31
2023-04-02T18:22:50.042Z,100875.79
2023-04-02T18:28:35.572Z,100882.65
2023-04-02T18:34:23.180Z,100896.27
2023-04-02T18:39:59.336Z,100901.16
2023-04-02T18:45:31.473Z,100909.85
2023-04-02T18:50:52.940Z,100912.52
2023-04-02T18:56:11.441Z,100918.14
2023-04-02T19:01:24.861Z,100927.06
2023-04-02T19:07:13.952Z,100928.52
2023-04-02T19:12:22.707Z,100935.47
2023-04-02T19:17:43.709Z,100941.70
2023-04-02T19:23:16.932Z,100944.36
2023-04-02T19:29:06.201Z,100950.40
2023-04-02T19:35:09.498Z,100962.20
2023-04-02T19:40:40.885Z,100966.39
2023-04-02T19:45:49.703Z,100965.63
2023-04-02T19:50:56.144Z,100968.04
2023-04-02T19:56:03.314Z,100973.44
2023-04-02T20:01:17.212Z,100976.95
2023-04-02T20:06:23.520Z,100981.66
2023-04-02T20:11:33.841Z,100978.58
2023-04-02T20:16:44.506Z,100987.52
2023-04-02T20:21:54.884Z,100991.14
2023-04-02T20:27:04.997Z,100997.21
2023-04-02T20:32:12.020Z,101002.51
2023-04-02T20:37:17.477Z,101007.91
2023-04-02T20:42:25.795Z,101013.39
2023-04-02T20:47:30.572Z,101025.76
2023-04-02T20:52:36.128Z,101028.83
2023-04-02T20:57:40.498Z,101036.08
2023-04-02T21:02:46.297Z,101037.27
2023-04-02T21:07:50.650Z,101045.66
2023-04-02T21:12:56.119Z,101048.79
2023-04-02T21:18:00.271Z,101052.07
2023-04-02T21:23:05.136Z,101047.08
2023-04-02T21:28:09.982Z,101050.17
2023-04-02T21:33:18.719Z,101060.60
2023-04-02T21:38:27.432Z,101064.89
2023-04-02T21:43:31.357Z,101066.79
2023-04-02T21:48:38.968Z,101071.73
2023-04-02T21:53:51.155Z,101077.45
2023-04-02T21:59:02.218Z,101085.22
2023-04-02T22:04:09.961Z,101086.82
2023-04-02T22:09:16.565Z,101095.73
2023-04-02T22:14:20.607Z,101093.95
2023-04-02T22:19:35.742Z,101100.63
2023-04-02T22:24:51.543Z,101107.42
2023-04-02T22:29:55.890Z,101110.41
2023-04-02T22:35:02.185Z,101113.77
2023-04-02T22:40:11.190Z,101113.23
2023-04-02T22:45:18.896Z,101107.94
2023-04-02T22:50:23.258Z,101115.13
2023-04-02T22:55:27.467Z,101118.36
2023-04-02T23:00:31.274Z,101113.65
2023-04-02T23:05:35.197Z,101118.05
2023-04-02T23:10:38.945Z,101118.69
2023-04-02T23:15:44.954Z,101127.92
2023-04-02T23:20:48.756Z,101127.84
2023-04-02T23:26:12.610Z,101127.61
2023-04-02T23:31:19.425Z,101133.27
2023-04-02T23:36:25.587Z,101138.17
2023-04-02T23:41:30.257Z,101140.52
2023-04-02T23:46:34.517Z,101139.27
2023-04-02T23:51:38.344Z,101140.72
2023-04-02T23:56:42.512Z,101140.30
